Date,TemperatureHighF,TemperatureAvgF,TemperatureLowF,DewpointHighF,DewpointAvgF,DewpointLowF,HumidityHigh,HumidityAvg,HumidityLow,PressureMaxIn,PressureMinIn,WindSpeedMaxMPH,WindSpeedAvgMPH,GustSpeedMaxMPH,PrecipitationSumIn
2013-1-2,42.8,40.0,36.0,32.4,32.0,31.5,86,73,65,30.39,30.34,6,1,0,0.00
2013-1-3,47.0,41.1,31.4,33.6,31.4,29.3,92,70,55,30.51,30.38,13,2,13,0.00
2013-1-4,46.0,41.5,37.8,40.8,37.8,31.4,95,87,57,30.58,30.44,13,2,13,0.21
2013-1-5,55.7,45.6,37.7,43.9,40.8,36.1,95,84,60,30.44,30.28,8,1,0,0.01
2013-1-6,59.6,44.8,33.5,37.2,34.6,30.9,96,72,34,30.45,30.33,16,2,16,0.00
2013-1-7,55.7,44.9,31.7,42.8,35.9,29.3,92,73,50,30.38,30.11,13,1,13,0.00
2013-1-8,54.2,50.8,47.5,53.4,49.3,42.8,97,94,73,30.11,29.91,13,2,0,0.43
2013-1-9,60.5,57.0,50.8,58.0,55.6,49.8,97,95,89,30.05,29.85,17,2,17,1.69
2013-1-10,66.5,55.3,47.9,50.9,47.2,45.1,98,77,49,30.09,30.00,18,2,18,0.01
2013-1-11,73.0,60.6,44.8,66.8,55.3,42.8,95,83,66,30.06,29.84,17,3,17,0.00
2013-1-12,75.4,68.0,48.5,69.5,63.0,38.1,97,85,59,29.92,29.67,21,4,21,0.02
2013-1-13,52.9,44.3,39.8,38.4,31.1,26.2,71,60,46,30.24,29.92,20,7,20,0.00
2013-1-14,50.2,41.8,35.9,33.1,29.2,24.4,70,61,51,30.32,30.15,18,6,18,0.00
2013-1-15,42.8,38.0,36.0,35.8,33.2,26.8,94,83,65,30.31,30.16,19,5,19,0.03
2013-1-16,53.4,40.9,31.9,26.7,23.3,15.7,69,52,24,30.41,30.24,20,3,20,0.00
2013-1-17,66.3,49.0,33.6,38.4,33.0,24.3,79,56,31,30.53,30.34,12,2,12,0.00
2013-1-18,65.2,49.8,34.1,37.7,34.6,31.0,90,61,31,30.57,30.36,12,1,12,0.00
2013-1-19,69.0,59.2,46.7,46.7,44.4,42.1,84,60,43,30.27,30.18,13,2,13,0.00
2013-1-20,73.5,56.2,39.7,53.3,45.6,38.1,94,71,39,30.29,30.11,12,1,12,0.00
2013-1-21,72.0,58.5,46.0,54.3,48.2,42.6,95,70,49,30.28,30.16,10,1,0,0.00
2013-1-22,73.3,58.1,43.7,52.9,46.6,38.9,85,67,47,30.35,30.22,15,2,15,0.00
2013-1-23,75.5,62.2,52.9,59.2,55.0,49.9,97,79,54,30.37,30.22,16,2,16,0.00
2013-1-24,78.7,68.6,60.5,64.4,61.0,57.5,92,78,57,30.27,30.11,15,4,15,0.00
2013-1-25,79.7,68.2,56.0,63.5,60.0,48.5,91,76,55,30.18,30.03,17,4,17,0.00
2013-1-26,67.8,57.3,52.4,59.6,53.4,48.3,95,87,74,30.22,30.09,8,1,0,0.00
2013-1-27,78.7,68.4,55.1,66.7,62.9,53.1,96,84,63,30.14,29.97,19,4,19,0.00
2013-1-28,77.9,72.7,69.7,68.1,66.8,65.8,91,82,68,30.05,29.88,25,6,25,0.00
2013-1-29,85.2,72.0,59.4,67.8,57.8,23.4,89,64,25,29.89,29.51,30,6,30,0.01
2013-1-30,59.7,52.4,40.0,31.5,22.6,14.1,56,32,18,30.27,29.83,22,5,22,0.00
2013-1-31,69.3,51.6,33.0,31.2,23.3,16.6,77,39,14,30.34,30.21,17,2,17,0.00
2013-2-1,71.8,57.9,45.4,43.1,37.2,27.3,73,48,27,30.40,30.20,17,2,17,0.00
2013-2-2,76.8,61.3,43.6,55.6,47.1,40.1,91,62,40,30.33,30.18,13,2,13,0.00
2013-2-3,72.8,61.3,45.6,49.7,39.2,25.8,76,47,19,30.38,30.06,15,2,15,0.00
2013-2-4,75.8,64.0,58.0,61.0,56.6,49.8,91,78,55,30.06,29.82,19,3,19,0.00
2013-2-5,79.8,65.2,52.7,56.8,49.6,40.0,95,62,26,30.01,29.89,9,1,0,0.00
2013-2-6,75.8,65.9,60.3,61.9,58.9,51.7,96,79,53,30.02,29.85,15,2,15,0.05
2013-2-7,84.5,68.8,60.1,62.4,56.4,41.4,91,68,33,30.11,29.85,20,3,20,0.00
2013-2-8,70.3,60.1,50.1,46.7,36.2,23.6,69,44,18,30.26,30.11,17,4,17,0.00
2013-2-9,69.9,59.9,54.2,67.1,55.8,37.8,96,87,48,30.14,29.80,19,4,19,0.03
2013-2-10,69.9,63.5,56.5,67.6,48.0,33.4,95,61,30,30.05,29.74,21,3,21,0.07
2013-2-11,59.2,55.5,51.4,51.2,47.5,42.7,93,75,58,30.13,30.00,13,3,15,0.09
2013-2-12,71.8,59.1,51.5,56.8,47.6,25.2,97,72,22,30.10,29.84,20,3,20,0.02
2013-2-13,63.9,51.6,41.7,41.0,36.0,31.1,78,58,31,30.20,30.06,20,4,20,0.00
2013-2-14,71.7,55.0,36.8,41.4,36.7,31.2,91,56,23,30.18,30.03,15,2,15,0.00
2013-2-15,62.4,51.7,40.7,41.1,36.8,23.9,85,58,36,30.43,30.11,20,4,20,0.00
2013-2-16,66.9,51.3,34.8,31.2,28.2,23.9,73,44,24,30.50,30.25,12,2,12,0.00
2013-2-17,71.7,57.6,38.2,52.7,37.8,29.9,77,50,27,30.25,30.00,21,5,21,0.00
2013-2-18,82.9,68.9,59.6,61.4,48.6,28.4,82,55,16,30.12,29.84,20,6,20,0.00
2013-2-19,69.5,58.8,46.7,36.2,32.1,20.8,64,38,17,30.31,30.11,17,3,17,0.00
2013-2-20,63.9,58.1,54.2,62.5,48.6,35.3,96,73,43,30.16,29.69,17,4,17,0.03
2013-2-21,78.7,68.0,53.0,67.4,44.2,16.9,97,52,11,29.89,29.59,23,4,23,0.01
2013-2-22,58.7,51.3,45.1,40.9,35.3,30.4,74,55,39,30.10,29.88,16,5,16,0.00
2013-2-23,71.8,54.8,41.8,39.4,34.0,29.3,69,47,25,30.12,29.91,14,3,14,0.00
2013-2-24,74.3,58.4,39.2,58.9,47.0,35.3,89,68,45,29.97,29.63,20,4,20,0.00
2013-2-25,65.1,57.5,48.3,60.0,37.8,17.9,95,53,17,29.86,29.57,39,10,39,0.00
2013-2-26,68.2,54.2,42.0,31.9,29.9,27.1,62,42,22,30.00,29.86,19,4,19,0.00
2013-2-27,64.0,55.2,46.6,35.3,28.9,20.9,57,38,21,30.27,29.90,24,5,24,0.00
2013-2-28,62.7,50.9,42.9,30.6,27.7,22.4,59,42,23,30.39,30.23,16,3,16,0.00
2013-3-1,70.3,52.6,35.2,32.3,27.2,16.8,72,42,14,30.35,30.15,17,2,17,0.00
2013-3-2,63.9,51.5,41.6,32.7,29.0,22.7,63,44,24,30.48,30.30,22,4,22,0.00
2013-3-3,76.0,58.5,39.6,44.8,33.2,25.9,62,41,21,30.31,29.96,24,4,24,0.00
2013-3-4,87.3,69.1,55.4,57.3,49.3,43.8,82,54,24,29.96,29.70,18,5,18,0.00
2013-3-5,67.2,58.7,47.8,57.6,27.3,7.8,84,36,11,30.40,29.78,29,7,29,0.00
2013-3-6,64.3,52.3,41.3,27.0,20.8,15.2,45,31,15,30.50,30.25,14,2,14,0.00
2013-3-7,74.3,58.7,42.1,54.3,43.1,25.4,71,57,39,30.30,30.11,17,4,17,0.00
2013-3-8,69.0,62.1,56.7,64.2,57.6,52.3,97,85,71,30.17,30.02,17,3,17,0.19
2013-3-9,73.6,67.7,62.9,66.9,63.4,59.1,94,86,75,30.05,29.68,22,6,22,0.02
2013-3-10,68.2,61.0,51.4,64.4,44.2,33.0,95,58,34,30.16,29.72,19,5,19,0.83
2013-3-11,68.6,52.9,39.3,36.0,29.3,17.3,81,46,18,30.23,30.04,15,2,15,0.00
2013-3-12,80.0,60.2,40.2,44.4,34.7,28.6,79,44,16,30.28,30.09,18,3,18,0.00
2013-3-13,77.4,62.5,46.7,43.3,38.3,33.8,73,44,23,30.47,30.28,16,2,16,0.00
2013-3-14,79.3,65.1,50.3,55.4,48.2,43.1,85,58,30,30.41,30.23,18,4,18,0.00
2013-3-15,82.3,67.6,54.0,57.0,49.1,39.8,92,58,24,30.27,30.01,24,5,24,0.00
2013-3-16,85.5,70.3,58.9,62.4,57.3,51.2,91,68,31,30.03,29.75,22,6,22,0.00
2013-3-17,86.2,73.8,66.2,65.6,62.2,59.2,87,69,42,29.83,29.66,21,4,21,0.00
2013-3-18,89.3,75.9,66.7,65.9,56.2,41.4,88,57,20,29.96,29.72,19,4,19,0.00
2013-3-19,85.1,68.8,53.5,64.7,54.1,46.3,79,60,44,30.02,29.86,17,3,17,0.00
2013-3-20,72.4,62.7,54.0,55.1,47.5,36.4,94,62,29,30.27,30.00,25,4,25,0.31
2013-3-21,76.3,65.3,54.8,61.3,53.6,40.3,82,66,51,30.06,29.62,24,5,24,0.00
2013-3-22,86.5,72.2,57.1,67.1,62.4,48.1,94,73,47,29.80,29.64,19,4,19,0.00
2013-3-23,78.2,62.1,53.1,62.0,53.5,47.3,87,75,54,29.83,29.61,14,3,14,0.00
2013-3-24,62.7,54.2,44.7,58.4,33.4,23.6,92,49,25,30.21,29.71,27,7,27,0.00
2013-3-25,60.2,50.0,39.5,28.6,22.1,15.2,54,35,18,30.44,30.21,18,4,18,0.00
2013-3-26,66.5,51.9,34.9,29.5,23.4,18.0,75,37,17,30.54,30.33,11,2,0,0.00
2013-3-27,70.3,57.0,39.1,49.7,38.8,24.4,76,52,36,30.37,30.18,19,4,19,0.00
2013-3-28,74.9,64.6,54.8,59.8,55.7,49.4,85,74,58,30.23,30.14,17,3,17,0.00
2013-3-29,79.8,68.8,59.3,61.6,58.0,56.5,93,71,48,30.20,30.07,16,3,16,0.00
2013-3-30,86.3,73.3,65.6,64.8,62.2,59.5,88,70,43,30.12,29.89,16,3,16,0.00
2013-3-31,78.2,71.0,64.9,67.6,64.3,60.9,89,80,61,29.98,29.85,13,2,13,0.01
2013-4-1,86.0,73.1,60.8,67.0,62.6,58.5,93,71,47,30.07,29.90,18,2,18,0.00
2013-4-2,76.9,68.0,59.7,67.8,64.2,56.1,97,88,72,30.02,29.80,23,2,31,2.67
2013-4-3,57.7,53.7,50.5,55.7,51.8,47.8,97,93,89,30.18,29.82,15,4,19,0.65
2013-4-4,61.1,52.4,48.5,48.0,44.6,40.8,91,76,57,30.27,30.14,17,4,17,0.00
2013-4-5,73.5,57.1,40.2,50.6,44.8,38.6,95,67,40,30.32,30.09,13,1,13,0.00
2013-4-6,82.5,66.7,53.6,60.1,55.5,49.1,92,70,45,30.10,29.86,19,4,21,0.00
2013-4-7,84.5,70.6,63.4,65.2,62.2,59.6,91,76,51,29.94,29.77,21,4,21,0.00
2013-4-8,77.1,71.3,67.7,67.8,65.4,62.0,89,82,69,29.85,29.69,16,4,16,0.00
2013-4-9,86.4,75.9,71.0,70.5,68.2,66.2,87,78,58,29.73,29.60,20,5,20,0.00
2013-4-10,75.4,58.3,45.4,69.9,53.0,42.2,93,83,69,29.99,29.65,21,5,21,0.16
2013-4-11,68.0,54.3,44.3,46.3,41.1,37.3,86,63,39,30.03,29.84,16,3,16,0.08
2013-4-12,82.4,63.3,44.4,52.3,45.2,40.8,94,58,24,30.04,29.87,13,2,13,0.00
2013-4-13,77.7,66.7,51.9,59.4,53.5,48.3,93,65,36,29.98,29.79,13,2,13,0.00
2013-4-14,87.2,72.2,58.2,69.2,62.4,55.5,93,73,49,29.84,29.61,17,3,17,0.00
2013-4-15,89.0,77.4,70.2,70.1,67.8,65.9,91,74,52,29.82,29.69,17,4,18,0.00
2013-4-16,86.0,77.2,70.3,71.5,68.1,64.5,91,75,58,29.90,29.80,19,4,19,0.00
2013-4-17,83.8,77.1,73.7,72.7,70.9,69.0,95,82,63,29.88,29.67,20,4,20,0.00
2013-4-18,75.8,63.4,50.8,72.3,54.7,38.3,92,75,49,30.14,29.65,20,5,20,0.32
2013-4-19,69.8,57.2,44.8,38.9,31.6,22.3,71,42,18,30.34,30.12,18,4,18,0.00
2013-4-20,73.8,58.6,39.7,47.9,36.2,28.9,88,49,21,30.27,30.02,16,2,16,0.00
2013-4-21,79.0,64.6,49.7,57.8,52.5,46.5,90,67,44,30.17,30.03,13,2,15,0.00
2013-4-22,85.7,71.2,57.8,62.8,59.5,55.9,94,69,44,30.13,29.87,18,3,18,0.00
2013-4-23,79.8,67.2,51.3,67.4,59.3,43.3,87,76,55,30.15,29.86,16,3,17,0.00
2013-4-24,64.3,54.7,45.9,43.6,39.2,35.1,82,58,40,30.31,30.14,20,5,20,0.00
2013-4-25,70.7,62.9,56.8,47.9,44.8,42.0,63,52,40,30.36,30.20,13,2,13,0.00
2013-4-26,78.9,70.4,60.7,70.7,64.1,45.3,97,82,47,30.21,30.02,17,2,17,0.03
2013-4-27,85.2,75.5,68.6,71.1,68.2,66.2,94,79,57,30.10,29.93,11,1,0,0.24
2013-4-28,86.5,74.2,63.3,67.7,63.8,58.3,96,73,42,30.04,29.85,15,2,15,0.01
2013-4-29,85.5,72.3,66.6,69.8,65.6,61.8,95,81,51,29.94,29.79,20,2,20,0.06
2013-4-30,84.1,72.7,63.8,67.3,64.9,62.3,96,78,54,29.86,29.73,11,1,0,0.00
2013-5-1,87.7,77.2,68.6,69.2,67.1,64.5,91,73,51,29.95,29.79,15,2,15,0.00
2013-5-2,77.2,58.3,48.6,66.4,49.5,36.8,84,73,58,30.37,29.92,28,5,28,0.00
2013-5-3,71.3,56.5,44.4,40.5,32.6,25.3,72,44,19,30.37,30.11,22,4,22,0.00
2013-5-4,85.7,67.1,47.0,45.6,36.0,28.3,77,36,15,30.12,29.88,17,2,17,0.00
2013-5-5,78.3,65.6,52.6,49.1,43.3,34.6,66,46,29,30.18,30.00,15,2,15,0.00
2013-5-6,74.8,63.3,50.2,54.6,49.4,46.6,89,63,41,30.18,30.02,7,0,0,0.00
2013-5-7,87.0,69.8,49.9,57.6,52.7,47.9,93,60,30,30.11,29.94,12,2,12,0.00
2013-5-8,85.5,74.0,64.9,65.5,63.1,57.6,92,70,49,30.03,29.88,18,3,18,0.00
2013-5-9,78.1,71.9,66.8,71.1,67.4,64.0,95,86,75,29.98,29.86,16,2,16,0.04
2013-5-10,87.4,72.0,62.7,67.6,64.3,60.9,96,79,46,30.05,29.79,21,2,21,1.85
2013-5-11,82.4,71.5,62.1,63.7,58.4,48.8,97,68,37,30.16,30.00,16,2,16,0.01
2013-5-12,83.2,69.8,56.9,59.0,53.3,45.3,86,59,29,30.28,30.13,14,1,14,0.00
2013-5-13,86.8,70.9,52.0,59.8,52.8,48.1,90,57,29,30.28,30.16,12,1,12,0.00
2013-5-14,87.0,74.6,62.1,68.2,62.9,58.4,89,69,46,30.24,30.00,16,3,16,0.00
2013-5-15,86.8,75.7,66.9,72.6,69.4,64.3,96,82,61,30.11,29.83,23,4,23,0.10
2013-5-16,93.8,79.9,71.2,74.2,70.6,68.3,92,75,46,29.88,29.70,23,4,23,0.00
2013-5-17,94.7,82.3,75.7,75.2,72.5,70.0,89,74,51,29.89,29.78,16,3,16,0.00
2013-5-18,95.5,82.3,73.1,73.4,69.7,65.2,91,68,44,29.92,29.81,19,4,19,0.00
2013-5-19,94.1,81.7,73.9,73.5,70.4,68.1,88,70,47,29.85,29.72,19,4,19,0.00
2013-5-20,93.2,81.8,73.1,72.8,71.0,67.9,90,72,49,29.84,29.69,18,4,18,0.00
2013-5-21,89.8,80.4,71.5,75.2,71.1,62.2,88,74,58,29.89,29.68,20,3,20,0.00
2013-5-22,94.3,78.3,61.9,73.7,65.1,58.8,95,67,37,29.93,29.80,10,1,0,0.00
2013-5-23,90.9,81.6,75.8,74.1,72.3,71.1,89,75,55,30.04,29.86,15,2,15,0.00
2013-5-24,83.4,74.7,68.5,74.3,71.1,67.2,97,89,72,30.14,30.00,13,1,13,2.14
2013-5-25,81.5,74.5,69.6,73.9,71.4,68.4,98,91,71,30.16,30.04,16,2,16,0.42
2013-5-26,86.5,78.7,72.4,74.3,71.9,68.4,96,81,63,30.10,29.97,20,3,20,0.36
2013-5-27,91.0,79.6,71.4,73.3,70.8,68.7,93,76,53,30.03,29.83,17,3,17,0.00
2013-5-28,91.5,81.1,74.3,72.6,71.0,69.8,88,73,52,29.92,29.76,24,4,24,0.00
2013-5-29,88.0,79.8,74.5,74.1,72.0,70.3,89,78,61,29.88,29.71,23,5,23,0.00
2013-5-30,91.5,82.4,75.6,74.7,73.0,71.5,90,74,54,29.84,29.74,16,3,16,0.00
2013-5-31,93.7,83.2,77.6,76.3,74.0,72.7,87,75,55,29.88,29.74,17,3,17,0.00
2013-6-1,95.9,85.0,77.2,75.9,73.8,72.3,88,71,49,29.89,29.79,18,3,18,0.00
2013-6-2,88.1,78.5,68.2,74.1,66.9,57.7,93,70,38,30.07,29.89,14,1,14,0.19
2013-6-3,94.3,79.6,64.0,68.8,64.9,59.9,94,64,35,30.00,29.83,9,1,0,0.00
2013-6-4,95.5,82.7,71.1,72.1,68.6,63.3,94,66,36,29.92,29.78,14,2,14,0.00
2013-6-5,95.5,82.6,70.3,71.6,68.5,63.2,92,65,39,29.90,29.73,14,2,14,0.00
2013-6-6,96.7,83.2,71.8,74.2,69.5,65.0,92,66,38,29.93,29.75,18,2,18,0.00
2013-6-7,87.2,78.2,71.3,67.1,61.9,54.6,82,60,35,30.01,29.88,12,2,12,0.00
2013-6-8,92.8,78.7,62.7,71.3,64.9,58.7,89,64,45,29.95,29.78,13,2,13,0.00
2013-6-9,89.7,81.1,69.0,74.2,72.1,66.7,94,75,52,29.99,29.84,14,1,14,0.44
2013-6-10,97.3,84.0,72.1,74.6,70.8,65.0,93,68,38,30.00,29.89,13,1,13,0.00
2013-6-11,95.0,82.8,75.5,74.5,72.2,67.8,93,72,46,30.03,29.95,16,2,16,0.00
2013-6-12,95.7,84.0,75.8,75.5,72.9,68.7,92,71,49,30.06,29.94,16,2,16,0.00
2013-6-13,96.5,82.7,77.1,76.0,72.8,66.2,92,74,47,30.06,29.93,21,2,21,0.00
2013-6-14,91.6,83.1,75.2,76.8,73.9,71.2,91,75,54,30.00,29.89,11,1,0,0.00
2013-6-15,89.8,83.6,78.4,77.3,74.8,72.2,90,76,62,30.00,29.88,10,1,0,0.00
2013-6-16,96.8,86.4,76.8,74.7,72.3,67.5,90,65,40,30.02,29.88,14,2,14,0.00
2013-6-17,97.5,86.8,77.6,75.2,72.0,64.9,88,65,37,30.00,29.83,13,2,13,0.00
2013-6-18,95.5,84.4,72.1,73.8,70.5,63.8,90,66,41,30.03,29.86,12,1,12,0.00
2013-6-19,97.8,86.8,77.1,74.4,71.2,65.7,90,63,38,29.97,29.88,17,2,17,0.00
2013-6-20,97.5,85.9,75.7,74.2,70.6,64.0,91,64,37,30.06,29.93,17,3,17,0.00
2013-6-21,98.2,86.7,77.1,74.9,69.7,61.6,90,61,32,30.08,29.95,17,3,17,0.00
2013-6-22,98.9,86.6,77.4,75.1,70.3,64.0,88,62,34,30.05,29.88,17,3,17,0.00
2013-6-23,97.5,85.7,77.5,74.5,69.1,59.8,88,61,32,29.99,29.88,17,3,17,0.00
2013-6-24,98.9,86.2,76.4,75.0,71.2,65.4,92,64,36,30.04,29.88,17,4,18,0.00
2013-6-25,100.3,87.4,78.2,74.8,70.2,63.1,88,60,32,30.00,29.85,22,4,22,0.00
2013-6-26,101.2,88.0,77.9,74.4,71.4,66.4,85,61,34,29.97,29.85,16,3,16,0.00
2013-6-27,102.7,88.4,77.2,74.7,68.1,55.1,85,56,23,30.03,29.88,12,2,12,0.00
2013-6-28,105.3,90.7,76.3,73.9,68.0,61.1,87,52,26,30.00,29.79,11,1,0,0.00
2013-6-29,106.0,92.9,77.1,72.0,64.6,54.3,69,42,19,29.86,29.72,12,1,12,0.00
2013-6-30,95.4,83.5,71.6,72.3,67.8,59.6,95,63,33,29.95,29.80,9,1,0,0.51
2013-7-1,91.8,82.2,72.8,68.7,57.9,53.7,65,45,30,30.01,29.89,17,2,17,0.00
2013-7-2,94.0,80.1,65.7,63.1,56.2,48.9,79,48,24,30.08,29.96,12,1,12,0.00
2013-7-3,95.9,82.1,66.5,64.1,54.2,46.9,72,41,21,30.04,29.90,10,1,0,0.00
2013-7-4,95.0,82.9,69.0,70.5,62.0,53.3,86,53,26,30.00,29.88,11,1,0,0.00
2013-7-5,98.7,86.3,70.4,72.2,64.4,56.6,85,52,26,29.99,29.82,11,2,0,0.00
2013-7-6,98.5,86.2,72.6,73.7,67.7,59.7,86,58,29,29.94,29.80,14,2,16,0.00
2013-7-7,99.5,85.3,76.0,75.1,72.1,66.2,88,67,37,29.98,29.85,16,2,16,0.00
2013-7-8,89.1,82.0,77.1,77.4,73.3,62.7,91,76,44,30.11,29.98,11,2,0,0.09
2013-7-9,99.6,87.0,77.0,75.1,72.3,66.6,90,65,36,30.15,29.98,14,2,14,0.00
2013-7-10,100.0,87.8,76.2,75.0,71.6,65.0,90,62,35,30.10,29.90,13,2,13,0.00
2013-7-11,100.3,88.3,76.5,75.3,69.3,60.3,87,57,29,30.01,29.85,11,2,13,0.00
2013-7-12,102.5,89.0,76.4,73.6,68.2,61.2,86,54,29,29.97,29.85,13,2,13,0.00
2013-7-13,103.5,91.3,76.0,71.1,65.7,57.9,78,47,25,29.98,29.81,10,1,0,0.00
2013-7-14,96.2,85.1,78.4,71.8,68.0,62.9,74,58,39,29.92,29.85,16,2,16,0.00
2013-7-15,79.4,73.8,71.2,75.5,71.3,68.1,96,92,72,30.04,29.90,9,1,0,0.46
2013-7-16,93.4,79.6,71.4,76.2,71.2,66.2,97,78,43,30.14,30.02,17,2,17,0.01
2013-7-17,90.8,77.3,73.0,75.5,72.6,70.7,97,86,54,30.19,30.09,20,1,20,0.38
2013-7-18,94.3,80.9,72.9,75.7,71.6,67.7,98,76,44,30.17,30.00,16,1,16,0.00
2013-7-19,97.0,83.3,72.1,74.5,70.1,64.0,96,68,36,30.08,29.89,20,1,20,0.00
2013-7-20,96.2,82.5,74.5,78.7,72.0,67.5,92,73,41,30.01,29.85,15,1,17,0.16
2013-7-21,95.3,82.5,74.5,76.3,74.3,70.8,95,78,48,29.97,29.88,18,2,18,0.00
2013-7-22,99.5,86.5,78.0,77.2,74.0,69.2,92,69,40,29.99,29.88,17,3,17,0.00
2013-7-23,98.5,86.9,78.3,75.6,72.2,65.8,87,65,37,30.01,29.85,14,3,15,0.00
2013-7-24,96.9,86.5,76.8,75.7,72.8,67.5,89,66,40,30.01,29.86,14,2,14,0.00
2013-7-25,100.5,87.9,76.7,74.8,70.8,63.8,91,61,32,30.02,29.93,15,2,15,0.00
2013-7-26,99.8,87.6,76.9,77.5,73.0,68.2,92,65,38,30.03,29.85,16,2,16,0.05
2013-7-27,88.8,80.3,74.4,77.7,72.9,69.3,96,79,58,30.00,29.89,12,2,12,0.23
2013-7-28,98.5,85.7,75.5,76.3,71.9,69.2,85,66,40,29.96,29.83,13,2,13,0.00
2013-7-29,101.0,87.7,78.6,75.6,70.6,62.3,85,61,29,30.03,29.92,18,4,18,0.00
2013-7-30,101.0,87.8,77.5,75.0,71.0,61.9,88,62,29,30.10,29.95,14,3,16,0.00
2013-7-31,103.0,88.1,75.9,73.7,68.7,58.8,91,58,25,30.10,29.91,12,2,12,0.00
2013-8-1,103.3,90.6,77.9,73.6,69.4,61.3,81,53,29,30.02,29.87,9,1,0,0.00
2013-8-2,102.0,89.5,77.8,73.2,68.4,62.5,74,52,30,29.98,29.85,14,2,14,0.00
2013-8-3,101.3,89.0,77.8,74.8,70.7,65.2,89,59,32,30.02,29.90,15,3,15,0.00
2013-8-4,100.7,88.7,78.2,76.6,72.8,67.5,90,63,36,30.08,29.90,15,2,15,0.00
2013-8-5,102.9,89.0,76.8,74.9,70.2,61.4,89,58,28,30.03,29.85,14,2,15,0.00
2013-8-6,103.7,89.4,76.8,75.3,71.0,62.1,87,59,27,29.95,29.78,16,3,16,0.00
2013-8-7,104.8,90.0,78.5,75.5,70.8,57.8,85,58,24,29.92,29.76,17,3,17,0.00
2013-8-8,104.7,89.8,78.2,74.1,69.1,56.6,84,56,22,29.90,29.75,16,3,16,0.00
2013-8-9,103.2,88.3,75.8,74.3,67.1,55.3,90,56,22,29.97,29.83,12,1,12,0.00
2013-8-10,103.5,89.1,76.9,73.7,70.8,63.9,82,57,29,30.04,29.90,20,2,20,0.00
2013-8-11,100.7,86.7,78.2,75.8,72.3,67.2,85,65,35,30.08,29.94,16,1,16,0.02
2013-8-12,100.5,87.2,75.7,73.7,70.6,65.9,90,61,35,30.07,29.92,15,2,15,0.00
2013-8-13,102.3,89.7,77.8,74.9,69.5,61.6,87,56,28,30.04,29.86,12,2,12,0.00
2013-8-14,104.3,86.9,78.6,73.8,71.0,66.0,82,62,32,30.00,29.87,15,2,15,0.00
2013-8-15,95.7,83.0,72.5,74.9,72.7,68.7,95,73,48,30.04,29.90,11,1,0,1.54
2013-8-16,95.5,81.8,72.6,77.5,70.6,61.2,98,73,36,30.05,29.90,13,1,14,0.01
2013-8-17,94.8,82.6,72.0,70.4,65.5,57.3,92,60,32,30.06,29.92,13,1,13,0.00
2013-8-18,97.8,82.4,67.6,70.5,62.3,57.2,86,54,29,30.06,29.96,10,1,0,0.00
2013-8-19,97.0,83.9,70.0,68.4,64.5,60.1,86,55,32,30.07,29.91,9,1,0,0.00
2013-8-20,97.0,83.6,71.4,72.4,68.1,60.6,89,62,33,30.04,29.93,15,2,15,0.00
2013-8-21,97.5,84.2,74.1,74.6,71.1,66.7,91,67,39,30.09,29.95,16,2,16,0.00
2013-8-22,97.5,86.1,74.9,75.8,71.8,68.2,90,65,41,30.09,29.90,11,1,0,0.00
2013-8-23,99.6,87.5,75.4,75.2,70.8,65.2,91,61,34,30.02,29.88,10,1,0,0.00
2013-8-24,100.8,88.4,77.3,73.6,70.5,66.3,82,58,34,30.04,29.91,19,1,19,0.00
2013-8-25,95.7,85.9,76.0,73.7,71.1,67.8,86,63,44,30.08,30.00,14,2,14,0.00
2013-8-26,92.0,81.0,73.9,74.2,72.1,70.0,93,76,51,30.13,30.02,16,2,16,0.02
2013-8-27,87.5,79.0,74.0,75.7,70.6,61.2,94,78,45,30.13,30.03,11,1,0,0.01
2013-8-28,98.2,84.4,72.8,75.4,71.1,66.5,96,68,37,30.12,29.99,11,1,0,0.00
2013-8-29,100.9,87.7,74.4,72.7,68.5,61.9,87,57,29,30.09,29.93,8,1,0,0.00
2013-8-30,104.0,90.6,76.1,69.9,66.4,60.3,75,48,26,30.02,29.85,10,1,0,0.00
2013-8-31,102.7,89.5,76.8,72.3,69.4,64.7,80,54,31,29.94,29.79,13,2,13,0.00
2013-9-1,100.8,88.4,75.8,74.4,69.9,65.1,85,57,35,29.91,29.78,12,2,12,0.00
2013-9-2,102.3,88.8,77.0,75.6,70.0,62.6,88,58,30,29.97,29.80,13,2,13,0.00
2013-9-3,103.3,89.2,74.8,71.2,67.6,61.3,82,52,27,30.00,29.85,10,1,0,0.00
2013-9-4,101.3,86.4,73.2,75.7,71.1,67.2,93,64,35,30.04,29.91,17,1,17,0.28
2013-9-5,97.4,83.8,72.9,75.5,71.1,67.0,94,69,39,30.11,29.98,10,1,16,0.00
2013-9-6,98.1,86.1,75.1,74.9,71.5,65.9,90,65,36,30.09,29.93,10,1,0,0.00
2013-9-7,98.8,82.8,75.5,75.7,72.4,66.7,91,74,37,30.04,29.88,27,1,27,0.06
2013-9-8,93.2,80.8,73.3,75.0,72.4,69.9,95,77,50,30.00,29.87,16,1,16,0.00
2013-9-9,93.3,79.0,72.1,74.1,71.7,68.7,95,80,46,30.00,29.90,17,1,19,0.03
2013-9-10,93.2,80.0,72.8,75.8,72.2,69.5,96,79,49,30.07,29.98,16,2,16,0.01
2013-9-11,94.8,83.6,74.8,75.2,70.9,63.8,93,69,38,30.11,29.97,13,1,13,0.00
2013-9-12,97.7,84.0,72.3,74.3,69.7,64.9,94,65,37,30.07,29.91,13,1,13,0.00
2013-9-13,98.0,86.0,72.2,72.3,66.5,61.3,90,56,31,29.97,29.80,14,1,14,0.00
2013-9-14,96.5,85.1,72.0,71.7,67.7,62.4,82,58,38,29.94,29.82,14,1,14,0.00
2013-9-15,94.4,84.4,75.5,74.9,71.4,65.5,88,67,41,30.02,29.91,14,1,14,0.00
2013-9-16,93.6,82.6,76.9,76.2,73.3,69.6,92,75,48,30.06,29.94,13,1,13,0.06
2013-9-17,91.7,81.7,74.4,77.1,73.5,70.3,96,78,51,30.06,29.92,13,1,13,0.01
2013-9-18,96.0,84.3,74.7,75.5,71.4,65.9,94,68,39,30.02,29.86,15,2,15,0.00
2013-9-19,94.9,82.7,77.6,80.2,74.3,72.3,88,77,51,29.95,29.79,17,1,17,0.03
2013-9-20,80.1,75.8,71.9,78.2,73.8,70.1,97,94,85,29.87,29.77,18,1,18,2.81
2013-9-21,84.5,74.4,64.8,70.2,62.5,51.1,95,70,35,29.94,29.83,16,2,16,0.01
2013-9-22,85.9,71.7,57.7,58.8,53.2,46.1,90,57,27,29.93,29.79,11,1,17,0.00
2013-9-23,92.5,73.9,56.8,60.0,55.8,45.8,93,59,22,29.86,29.75,7,0,0,0.00
2013-9-24,98.0,79.9,63.5,67.6,61.1,56.8,88,58,27,29.93,29.82,12,1,12,0.00
2013-9-25,97.5,82.4,65.9,67.2,62.1,59.1,88,55,30,29.91,29.77,10,1,0,0.00
2013-9-26,93.1,81.8,69.5,73.6,65.3,58.2,83,59,35,29.90,29.81,14,2,14,0.00
2013-9-27,90.6,81.7,77.0,78.0,75.1,73.7,91,81,59,29.92,29.82,13,2,16,0.06
2013-9-28,94.3,81.6,76.1,77.5,75.5,71.9,95,83,52,29.98,29.87,17,2,17,0.56
2013-9-29,78.0,70.9,66.2,73.5,68.0,65.0,97,91,73,30.07,29.94,11,0,0,0.72
2013-9-30,90.3,75.0,61.5,68.3,61.7,57.0,97,69,35,29.97,29.81,8,0,0,0.01
2013-10-1,92.0,78.5,65.2,73.3,69.6,61.8,96,77,46,29.94,29.83,11,1,0,0.00
2013-10-2,92.7,82.0,74.8,75.5,73.0,70.0,93,76,52,29.96,29.84,12,2,12,0.00
2013-10-3,92.4,83.1,76.9,75.0,72.6,69.2,91,72,50,29.94,29.82,14,2,14,0.00
2013-10-4,92.2,81.2,73.3,74.4,71.7,70.0,94,75,49,29.92,29.83,16,3,16,0.00
2013-10-5,89.8,76.0,63.8,73.3,65.3,43.3,94,71,47,30.08,29.88,16,2,16,0.00
2013-10-6,81.3,64.6,54.9,59.2,49.1,35.6,95,63,20,30.16,30.06,15,1,15,0.36
2013-10-7,89.0,67.0,49.4,53.6,47.1,38.9,89,56,21,30.20,30.06,7,0,0,0.00
2013-10-8,86.3,69.3,51.6,55.2,50.8,47.0,94,58,27,30.12,29.99,9,1,0,0.00
2013-10-9,85.5,69.7,53.1,63.4,57.3,50.7,95,68,40,30.09,29.96,12,1,12,0.00
2013-10-10,87.4,74.5,61.4,68.0,63.9,58.8,95,72,47,30.06,29.89,13,2,15,0.00
2013-10-11,89.0,78.9,71.9,75.2,71.9,67.4,90,80,60,29.96,29.83,12,2,12,0.00
2013-10-12,94.0,81.9,75.4,76.2,74.0,70.9,94,78,52,30.04,29.90,15,2,15,1.19
2013-10-13,75.5,71.2,67.1,74.0,70.1,66.2,98,96,94,30.17,30.02,23,1,23,5.25
2013-10-14,79.8,74.7,72.1,75.5,72.3,71.0,97,92,81,30.11,29.93,11,1,0,0.36
2013-10-15,86.8,75.7,60.1,73.5,69.6,56.8,97,83,59,30.03,29.88,14,1,14,0.05
2013-10-16,61.2,58.4,55.0,58.5,56.4,53.6,97,93,89,30.11,29.99,10,1,12,0.92
2013-10-17,74.5,61.9,51.8,58.4,52.0,47.3,92,73,43,30.17,30.01,9,1,0,0.00
2013-10-18,72.9,64.5,54.6,64.6,59.3,52.9,96,84,69,30.04,29.91,8,0,0,0.01
2013-10-19,68.3,58.5,48.9,63.9,46.4,38.3,88,67,37,30.24,30.01,20,2,20,0.00
2013-10-20,75.5,59.2,42.7,52.0,46.2,41.1,96,67,34,30.14,29.94,12,1,12,0.00
2013-10-21,81.8,67.9,58.5,70.9,61.8,51.7,94,82,63,30.09,29.92,10,0,0,0.05
2013-10-22,76.6,63.9,52.8,57.6,48.4,38.8,86,62,28,30.19,30.08,11,1,0,0.01
2013-10-23,84.8,65.6,47.9,52.1,46.4,39.4,90,57,21,30.20,30.11,9,1,0,0.00
2013-10-24,84.3,66.1,49.3,55.7,50.5,45.7,95,63,27,30.25,30.14,9,0,0,0.00
2013-10-25,80.0,66.1,51.7,63.2,57.5,50.0,96,76,54,30.35,30.22,11,1,0,0.00
2013-10-26,82.1,70.6,62.5,66.4,62.7,58.9,89,77,55,30.25,30.07,14,2,14,0.00
2013-10-27,76.0,68.1,64.4,66.8,64.4,62.0,96,88,68,30.13,30.02,14,0,14,0.21
2013-10-28,81.8,72.3,66.3,70.6,67.0,63.6,97,85,66,30.11,29.98,15,2,15,0.00
2013-10-29,84.0,76.2,70.5,72.3,69.4,67.4,92,80,62,30.09,29.97,16,3,16,0.00
2013-10-30,83.7,77.6,73.8,76.8,73.6,69.6,96,88,74,30.05,29.80,15,2,15,0.25
2013-10-31,82.6,71.2,54.6,73.8,59.2,38.1,98,73,21,29.91,29.75,13,1,13,3.88
2013-11-1,85.7,65.9,48.7,62.4,49.0,38.7,97,62,21,30.10,29.84,14,1,14,0.00
2013-11-2,74.5,63.5,50.7,47.0,42.3,33.7,82,49,23,30.32,30.10,12,1,12,0.00
2013-11-3,70.0,57.5,42.4,54.0,44.2,38.1,95,66,32,30.26,30.05,12,1,12,0.00
2013-11-4,67.2,63.5,60.2,64.4,59.7,53.8,93,88,78,30.10,29.99,9,1,0,0.05
2013-11-5,80.3,71.3,66.2,70.3,67.8,64.1,97,89,68,30.04,29.91,16,2,16,0.01
2013-11-6,71.9,61.8,50.7,70.2,57.1,45.1,97,85,63,30.36,30.00,17,1,17,0.59
2013-11-7,63.4,53.8,42.5,47.0,41.3,35.8,90,65,39,30.51,30.36,15,1,15,0.00
2013-11-8,65.6,57.4,49.9,47.8,44.0,38.1,90,64,37,30.43,30.20,8,1,15,0.00
2013-11-9,70.8,62.1,55.1,59.1,54.0,45.6,88,75,64,30.23,30.14,9,1,0,0.00
2013-11-10,70.3,64.5,60.5,60.1,57.8,54.9,89,79,65,30.34,30.20,7,0,0,0.00
2013-11-11,77.2,64.0,52.2,58.1,54.6,49.7,94,74,48,30.31,30.18,4,0,0,0.00
2013-11-12,60.3,53.8,44.5,56.8,45.1,26.3,96,74,44,30.67,30.27,20,3,20,0.01
2013-11-13,56.3,43.9,33.8,32.8,28.3,22.4,87,57,27,30.71,30.45,10,1,0,0.00
2013-11-14,62.6,48.5,30.9,51.3,37.7,29.1,95,70,35,30.45,30.08,12,1,12,0.00
2013-11-15,78.7,64.7,49.5,61.1,56.1,47.3,95,75,51,30.10,29.89,13,1,13,0.00
2013-11-16,81.8,72.5,62.2,71.3,66.8,59.3,95,83,65,29.94,29.75,19,2,19,0.00
2013-11-17,91.3,77.8,66.1,73.0,67.7,58.0,93,75,33,29.96,29.78,8,1,0,0.00
2013-11-18,79.5,68.0,60.2,67.6,60.1,52.9,94,77,54,30.13,29.95,9,1,0,0.00
2013-11-19,73.7,64.0,55.5,55.0,48.4,44.1,79,58,38,30.18,30.02,9,1,0,0.00
2013-11-20,71.9,64.3,58.6,65.9,56.9,50.0,95,77,67,30.05,29.91,9,1,0,0.02
2013-11-21,80.7,74.6,67.4,73.7,70.9,65.9,97,89,74,30.07,29.95,12,2,12,0.08
2013-11-22,73.9,43.6,36.1,71.7,41.5,34.3,94,92,77,30.45,30.05,20,4,20,0.59
2013-11-23,43.4,39.5,36.5,40.2,37.2,34.6,94,91,85,30.53,30.42,19,4,19,0.01
2013-11-24,43.5,39.3,35.1,39.2,34.0,29.8,92,82,66,30.56,30.37,20,4,20,0.15
2013-11-25,39.8,37.6,34.7,38.5,36.1,33.0,96,94,88,30.40,30.15,15,2,15,0.90
2013-11-26,53.6,44.0,38.5,39.4,35.4,30.4,90,73,51,30.41,30.16,17,3,17,0.00
2013-11-27,52.0,41.9,33.9,31.4,27.1,20.4,88,59,30,30.55,30.40,14,2,14,0.00
2013-11-28,56.8,41.5,30.8,34.6,30.0,24.1,94,69,29,30.52,30.39,7,0,0,0.00
2013-11-29,62.7,47.9,30.7,50.2,41.0,28.9,96,78,59,30.56,30.40,10,1,0,0.00
2013-11-30,67.8,58.3,50.6,58.0,51.5,45.6,85,78,68,30.42,30.21,9,1,0,0.00
2013-12-1,73.7,64.2,52.5,61.5,57.7,50.3,95,80,64,30.24,29.95,14,1,14,0.00
2013-12-2,84.6,68.5,56.0,59.4,54.1,41.3,94,66,22,29.95,29.68,11,1,0,0.00
2013-12-3,87.0,67.1,47.3,59.4,48.0,40.3,96,59,21,29.73,29.60,10,1,0,0.00
2013-12-4,76.4,65.5,56.0,67.4,60.4,48.3,96,84,59,29.82,29.68,12,1,12,0.00
2013-12-5,67.9,46.1,33.7,67.0,40.0,26.4,97,80,64,30.15,29.80,18,5,18,0.02
2013-12-6,37.0,33.5,30.2,32.5,28.9,24.1,93,83,76,30.51,30.11,19,6,19,0.08
2013-12-7,30.7,28.6,26.6,25.8,23.2,20.8,90,80,74,30.54,30.36,18,4,18,0.00
2013-12-8,47.6,36.5,28.3,38.3,32.0,25.5,92,84,67,30.37,30.09,9,0,0,0.00
2013-12-9,39.5,37.6,34.0,38.5,36.0,31.4,96,94,86,30.45,30.11,17,3,17,0.05
2013-12-10,46.4,36.5,28.9,31.5,25.7,20.4,88,67,39,30.59,30.40,14,2,17,0.00
2013-12-11,58.5,42.9,28.9,34.7,30.9,26.0,92,66,36,30.61,30.40,12,1,0,0.00
2013-12-12,52.8,43.4,34.0,36.4,33.0,28.8,82,68,49,30.65,30.36,8,1,0,0.00
2013-12-13,51.9,46.9,44.9,50.8,41.9,35.0,96,83,68,30.37,29.94,10,1,0,0.13
2013-12-14,51.8,47.1,41.4,50.7,41.6,32.9,96,82,66,30.39,29.91,19,3,19,0.00
2013-12-15,61.6,46.3,33.2,36.3,32.7,29.0,87,62,33,30.46,30.32,7,1,0,0.00
2013-12-16,68.2,48.5,31.0,39.5,33.8,29.2,95,63,29,30.36,30.23,11,1,13,0.00
2013-12-17,73.8,52.0,34.6,43.1,38.2,32.2,94,65,27,30.37,30.26,7,0,0,0.00
2013-12-18,70.9,54.4,36.9,55.4,46.2,35.1,95,76,51,30.33,30.09,14,2,15,0.00
2013-12-19,76.2,65.6,54.8,63.7,59.0,50.8,91,80,60,30.09,29.82,26,4,26,0.00
2013-12-20,74.0,69.8,65.7,68.5,65.7,63.0,92,87,77,29.86,29.64,22,4,22,0.00
2013-12-21,73.1,54.0,45.4,68.6,51.5,43.6,97,91,79,29.88,29.60,19,2,19,0.40
2013-12-22,54.6,45.2,39.9,43.7,38.6,31.5,96,79,51,30.43,29.88,14,3,14,0.01
2013-12-23,56.1,42.2,32.4,34.2,30.4,26.7,87,66,34,30.59,30.43,10,1,0,0.00
2013-12-24,59.1,44.3,29.2,39.1,30.4,22.7,94,64,25,30.59,30.33,13,2,13,0.00
2013-12-25,56.1,47.9,38.9,47.2,42.3,36.8,95,82,68,30.45,30.30,8,1,0,0.00
2013-12-26,56.3,48.1,39.7,42.3,38.9,35.3,84,71,57,30.50,30.37,10,2,0,0.00
2013-12-27,57.4,50.0,44.7,45.3,42.2,40.2,91,76,55,30.50,30.36,9,1,0,0.00
2013-12-28,61.5,50.0,38.0,46.1,40.5,35.1,96,73,43,30.37,30.06,7,1,12,0.01
2013-12-29,66.7,48.8,35.7,52.9,43.1,30.8,96,81,60,30.34,30.02,16,3,17,0.00
2013-12-30,43.3,38.4,35.1,34.1,28.8,24.9,83,69,54,30.47,30.29,10,3,14,0.00
2013-12-31,54.2,43.1,36.7,33.7,31.0,27.3,84,64,38,30.53,30.30,9,1,0,0.00
2014-1-1,66.5,51.7,38.5,53.4,43.2,32.1,90,73,58,30.30,30.04,20,2,20,0.00
2014-1-2,53.7,43.4,33.2,49.9,29.1,22.6,91,59,33,30.51,30.15,21,5,21,0.00